createdAt,value
2018-01-05T00:00:02.331Z,8.00
2018-01-05T00:01:03.169Z,8.00
2018-01-05T00:02:02.296Z,8.00
2018-01-05T00:03:03.198Z,8.00
2018-01-05T00:04:03.193Z,8.00
2018-01-05T00:05:02.278Z,8.00
2018-01-05T00:06:02.294Z,8.00
2018-01-05T00:07:03.188Z,8.00
2018-01-05T00:08:02.861Z,8.00
2018-01-05T00:09:03.202Z,8.00
2018-01-05T00:10:03.724Z,8.00
2018-01-05T00:11:02.256Z,8.00
2018-01-05T00:12:02.255Z,8.00
2018-01-05T00:13:03.205Z,8.00
2018-01-05T00:14:03.210Z,8.00
2018-01-05T00:15:03.197Z,8.00
2018-01-05T00:16:03.703Z,8.00
2018-01-05T00:17:02.246Z,8.00
2018-01-05T00:18:03.696Z,8.00
2018-01-05T00:19:02.254Z,8.00
2018-01-05T00:21:57.538Z,8.00
2018-01-05T00:22:58.068Z,8.00
2018-01-05T00:24:51.559Z,8.00
2018-01-05T00:25:50.971Z,8.00
2018-01-05T00:27:46.797Z,8.00
2018-01-05T00:28:45.384Z,8.00
2018-01-05T00:30:39.654Z,8.00
2018-01-05T00:31:40.123Z,8.00
2018-01-05T00:33:34.067Z,8.00
2018-01-05T00:34:34.015Z,8.00
2018-01-05T00:36:28.376Z,8.00
2018-01-05T00:37:28.364Z,8.00
2018-01-05T00:39:22.822Z,8.00
2018-01-05T00:40:22.729Z,8.00
2018-01-05T00:42:17.104Z,8.00
2018-01-05T00:43:17.369Z,8.00
2018-01-05T00:45:11.507Z,8.00
2018-01-05T00:46:11.449Z,8.00
2018-01-05T00:48:05.830Z,8.00
2018-01-05T00:49:05.814Z,4.00
2018-01-05T00:51:00.260Z,4.00
2018-01-05T00:52:00.169Z,4.00
2018-01-05T00:53:59.554Z,4.00
2018-01-05T00:54:59.547Z,4.00
2018-01-05T00:56:53.952Z,8.00
2018-01-05T00:57:53.914Z,8.00
2018-01-05T00:59:48.275Z,4.00
2018-01-05T01:00:48.266Z,4.00
2018-01-05T01:02:42.724Z,4.00
2018-01-05T01:03:42.626Z,8.00
2018-01-05T01:05:37.029Z,8.00
2018-01-05T01:06:37.027Z,4.00
2018-01-05T01:08:31.591Z,8.00
2018-01-05T01:09:31.398Z,8.00
2018-01-05T01:11:25.788Z,4.00
2018-01-05T01:12:25.782Z,8.00
2018-01-05T01:14:20.392Z,4.00
2018-01-05T01:15:20.147Z,8.00
2018-01-05T01:17:14.518Z,4.00
2018-01-05T01:18:14.513Z,4.00
2018-01-05T01:20:08.936Z,8.00
2018-01-05T01:21:08.883Z,4.00
2018-01-05T01:23:03.337Z,8.00
2018-01-05T01:24:03.255Z,4.00
2018-01-05T01:25:57.625Z,8.00
2018-01-05T01:26:57.624Z,4.00
2018-01-05T01:28:52.036Z,4.00
2018-01-05T01:29:51.989Z,4.00
2018-01-05T01:31:46.339Z,4.00
2018-01-05T01:32:46.330Z,4.00
2018-01-05T01:34:40.749Z,8.00
2018-01-05T01:35:40.687Z,8.00
2018-01-05T01:37:35.071Z,8.00
2018-01-05T01:38:35.064Z,8.00
2018-01-05T01:40:29.609Z,8.00
2018-01-05T01:41:29.432Z,4.00
2018-01-05T01:43:23.806Z,8.00
2018-01-05T01:44:23.795Z,8.00
2018-01-05T01:46:18.201Z,4.00
2018-01-05T01:47:18.160Z,4.00
2018-01-05T01:49:12.678Z,4.00
2018-01-05T01:50:12.546Z,4.00
2018-01-05T01:52:06.898Z,4.00
2018-01-05T01:53:06.888Z,4.00
2018-01-05T01:55:02.241Z,4.00
2018-01-05T01:56:01.242Z,4.00
2018-01-05T01:57:55.860Z,8.00
2018-01-05T01:58:55.626Z,4.00
2018-01-05T02:00:50.038Z,8.00
2018-01-05T02:01:49.975Z,8.00
2018-01-05T02:03:44.381Z,4.00
2018-01-05T02:04:44.331Z,8.00
2018-01-05T02:06:38.714Z,4.00
2018-01-05T02:07:38.736Z,8.00
2018-01-05T02:09:33.131Z,4.00
2018-01-05T02:10:33.072Z,4.00
2018-01-05T02:12:27.454Z,4.00
2018-01-05T02:13:27.446Z,4.00
2018-01-05T02:15:21.922Z,4.00
2018-01-05T02:16:21.809Z,4.00
2018-01-05T02:18:16.282Z,4.00
2018-01-05T02:19:16.179Z,4.00
2018-01-05T02:21:10.556Z,4.00
2018-01-05T02:22:10.551Z,4.00
2018-01-05T02:24:04.949Z,8.00
2018-01-05T02:25:04.910Z,4.00
2018-01-05T02:26:59.475Z,4.00
2018-01-05T02:27:59.265Z,8.00
2018-01-05T02:29:53.642Z,4.00
2018-01-05T02:30:53.633Z,8.00
2018-01-05T02:32:48.178Z,4.00
2018-01-05T02:33:48.000Z,4.00
2018-01-05T02:35:42.374Z,4.00
2018-01-05T02:36:42.363Z,4.00
2018-01-05T02:38:37.127Z,4.00
2018-01-05T02:39:36.735Z,4.00
2018-01-05T02:41:31.103Z,8.00
2018-01-05T02:42:31.093Z,4.00
2018-01-05T02:44:25.514Z,4.00
2018-01-05T02:45:25.455Z,8.00
2018-01-05T02:47:19.826Z,4.00
2018-01-05T02:48:19.820Z,4.00
2018-01-05T02:50:14.308Z,4.00
2018-01-05T02:51:14.174Z,8.00
2018-01-05T02:53:08.548Z,4.00
2018-01-05T02:54:08.540Z,4.00
2018-01-05T02:56:02.955Z,8.00
2018-01-05T02:57:02.906Z,8.00
2018-01-05T02:58:57.346Z,4.00
2018-01-05T02:59:57.270Z,4.00
2018-01-05T03:01:51.671Z,8.00
2018-01-05T03:02:51.635Z,4.00
2018-01-05T03:04:46.013Z,8.00
2018-01-05T03:05:46.010Z,8.00
2018-01-05T03:07:40.468Z,8.00
2018-01-05T03:08:40.375Z,4.00
2018-01-05T03:10:34.754Z,4.00
2018-01-05T03:11:34.747Z,4.00
2018-01-05T03:13:29.133Z,8.00
2018-01-05T03:14:29.095Z,4.00
2018-01-05T03:16:24.313Z,4.00
2018-01-05T03:17:24.307Z,4.00
2018-01-05T03:19:18.726Z,4.00
2018-01-05T03:20:18.683Z,4.00
2018-01-05T03:22:13.651Z,8.00
2018-01-05T03:23:13.060Z,8.00
2018-01-05T03:25:07.428Z,8.00
2018-01-05T03:26:07.418Z,8.00
2018-01-05T03:28:02.023Z,8.00
2018-01-05T03:29:01.782Z,8.00
2018-01-05T03:30:56.156Z,8.00
2018-01-05T03:31:56.136Z,8.00
2018-01-05T03:33:50.541Z,8.00
2018-01-05T03:34:50.498Z,8.00
2018-01-05T03:36:45.707Z,8.00
2018-01-05T03:37:44.852Z,8.00
2018-01-05T03:39:39.229Z,8.00
2018-01-05T03:40:39.212Z,8.00
2018-01-05T03:42:33.624Z,8.00
2018-01-05T03:43:33.577Z,8.00
2018-01-05T03:45:27.976Z,4.00
2018-01-05T03:46:27.947Z,8.00
2018-01-05T03:48:22.311Z,4.00
2018-01-05T03:49:22.302Z,4.00
2018-01-05T03:51:16.721Z,8.00
2018-01-05T03:52:16.668Z,4.00
2018-01-05T03:54:15.862Z,8.00
2018-01-05T03:55:15.839Z,4.00
2018-01-05T03:57:10.398Z,4.00
2018-01-05T03:58:10.258Z,8.00
2018-01-05T04:00:04.645Z,4.00
2018-01-05T04:01:04.576Z,4.00
2018-01-05T04:02:58.948Z,4.00
2018-01-05T04:03:58.943Z,4.00
2018-01-05T04:05:53.683Z,4.00
2018-01-05T04:06:53.306Z,4.00
2018-01-05T04:08:47.678Z,4.00
2018-01-05T04:09:47.665Z,4.00
2018-01-05T04:11:42.236Z,4.00
2018-01-05T04:12:42.029Z,4.00
2018-01-05T04:14:36.401Z,8.00
2018-01-05T04:15:36.394Z,8.00
2018-01-05T04:17:30.892Z,8.00
2018-01-05T04:18:33.322Z,8.00
2018-01-05T04:20:25.125Z,8.00
2018-01-05T04:21:25.117Z,8.00
2018-01-05T04:23:19.598Z,8.00
2018-01-05T04:24:19.481Z,8.00
2018-01-05T04:26:13.876Z,8.00
2018-01-05T04:27:13.844Z,8.00
2018-01-05T04:29:08.420Z,8.00
2018-01-05T04:30:08.205Z,8.00
2018-01-05T04:32:02.579Z,8.00
2018-01-05T04:33:02.569Z,8.00
2018-01-05T04:34:57.036Z,8.00
2018-01-05T04:35:56.927Z,8.00
2018-01-05T04:37:51.296Z,8.00
2018-01-05T04:38:51.294Z,8.00
2018-01-05T04:40:45.810Z,8.00
2018-01-05T04:41:45.651Z,8.00
2018-01-05T04:43:40.025Z,8.00
2018-01-05T04:44:40.015Z,8.00
2018-01-05T04:46:34.420Z,8.00
2018-01-05T04:47:34.378Z,8.00
2018-01-05T04:49:28.750Z,8.00
2018-01-05T04:50:28.741Z,8.00
2018-01-05T04:52:23.141Z,12.00
2018-01-05T04:53:23.106Z,8.00
2018-01-05T04:55:17.526Z,8.00
2018-01-05T04:56:17.471Z,8.00
2018-01-05T04:58:11.927Z,8.00
2018-01-05T04:59:11.864Z,8.00
2018-01-05T05:01:06.218Z,8.00
2018-01-05T05:02:06.202Z,8.00
2018-01-05T05:04:00.659Z,8.00
2018-01-05T05:05:00.574Z,8.00
2018-01-05T05:06:54.948Z,8.00
2018-01-05T05:07:54.945Z,8.00
2018-01-05T05:09:49.934Z,8.00
2018-01-05T05:10:49.299Z,8.00
2018-01-05T05:12:43.682Z,8.00
2018-01-05T05:13:43.662Z,8.00
2018-01-05T05:15:38.164Z,8.00
2018-01-05T05:16:38.026Z,8.00
2018-01-05T05:18:32.441Z,8.00
2018-01-05T05:19:32.388Z,8.00
2018-01-05T05:21:26.757Z,8.00
2018-01-05T05:22:26.751Z,8.00
2018-01-05T05:24:21.174Z,8.00
2018-01-05T05:25:21.102Z,8.00
2018-01-05T05:27:15.489Z,8.00
2018-01-05T05:28:15.463Z,12.00
2018-01-05T05:30:09.864Z,8.00
2018-01-05T05:31:09.824Z,8.00
2018-01-05T05:33:04.218Z,8.00
2018-01-05T05:34:04.179Z,8.00
2018-01-05T05:35:58.577Z,8.00
2018-01-05T05:36:58.531Z,8.00
2018-01-05T05:38:52.904Z,8.00
2018-01-05T05:39:52.894Z,8.00
2018-01-05T05:41:47.365Z,8.00
2018-01-05T05:42:47.258Z,8.00
2018-01-05T05:44:41.635Z,8.00
2018-01-05T05:45:41.624Z,12.00
2018-01-05T05:47:36.037Z,16.00
2018-01-05T05:48:35.984Z,12.00
2018-01-05T05:50:30.345Z,16.00
2018-01-05T05:51:30.336Z,16.00
2018-01-05T05:53:24.750Z,16.00
2018-01-05T05:54:24.700Z,16.00
2018-01-05T05:56:19.111Z,16.00
2018-01-05T05:57:19.054Z,16.00
2018-01-05T05:59:18.422Z,16.00
2018-01-05T06:00:18.419Z,16.00
2018-01-05T06:02:12.856Z,16.00
2018-01-05T06:03:12.775Z,16.00
2018-01-05T06:05:07.141Z,16.00
2018-01-05T06:06:07.136Z,16.00
2018-01-05T06:08:01.624Z,16.00
2018-01-05T06:09:01.507Z,16.00
2018-01-05T06:10:55.857Z,16.00
2018-01-05T06:11:55.849Z,16.00
2018-01-05T06:13:50.265Z,16.00
2018-01-05T06:14:50.213Z,16.00
2018-01-05T06:16:44.625Z,16.00
2018-01-05T06:17:44.574Z,16.00
2018-01-05T06:19:39.028Z,16.00
2018-01-05T06:20:38.936Z,16.00
2018-01-05T06:22:33.306Z,16.00
2018-01-05T06:23:33.299Z,16.00
2018-01-05T06:25:27.755Z,16.00
2018-01-05T06:26:27.668Z,12.00
2018-01-05T06:28:22.038Z,12.00
2018-01-05T06:29:22.030Z,16.00
2018-01-05T06:31:20.853Z,16.00
2018-01-05T06:32:20.814Z,16.00
2018-01-05T06:34:15.884Z,16.00
2018-01-05T06:35:15.823Z,16.00
2018-01-05T06:37:10.211Z,16.00
2018-01-05T06:38:10.254Z,16.00
2018-01-05T06:40:04.616Z,16.00
2018-01-05T06:41:04.563Z,16.00
2018-01-05T06:42:58.955Z,44.00
2018-01-05T06:43:58.951Z,0.00
2018-01-05T06:45:52.442Z,20.00
2018-01-05T06:46:52.355Z,16.00
2018-01-05T06:48:46.718Z,16.00
2018-01-05T06:49:46.708Z,16.00
2018-01-05T06:51:41.206Z,16.00
2018-01-05T06:52:41.070Z,20.00
2018-01-05T06:54:35.443Z,16.00
2018-01-05T06:55:35.451Z,16.00
2018-01-05T06:57:29.833Z,20.00
2018-01-05T06:58:29.795Z,16.00
2018-01-05T07:00:24.196Z,20.00
2018-01-05T07:01:24.158Z,20.00
2018-01-05T07:03:18.529Z,20.00
2018-01-05T07:04:18.519Z,20.00
2018-01-05T07:06:13.041Z,24.00
2018-01-05T07:07:12.893Z,28.00
2018-01-05T07:09:07.253Z,32.00
2018-01-05T07:10:07.245Z,36.00
2018-01-05T07:12:01.645Z,40.00
2018-01-05T07:13:01.619Z,48.00
2018-01-05T07:14:56.674Z,48.00
2018-01-05T07:15:56.140Z,52.00
2018-01-05T07:17:50.517Z,56.00
2018-01-05T07:18:50.504Z,64.00
2018-01-05T07:20:45.381Z,68.00
2018-01-05T07:21:44.871Z,72.00
2018-01-05T07:23:39.228Z,72.00
2018-01-05T07:24:39.219Z,68.00
2018-01-05T07:26:33.740Z,72.00
2018-01-05T07:27:33.578Z,72.00
2018-01-05T07:29:27.950Z,68.00
2018-01-05T07:30:27.942Z,72.00
2018-01-05T07:32:22.340Z,80.00
2018-01-05T07:33:22.306Z,88.00
2018-01-05T07:35:16.744Z,100.00
2018-01-05T07:36:16.689Z,108.00
2018-01-05T07:38:10.096Z,116.00
2018-01-05T07:39:10.122Z,120.00
2018-01-05T07:41:04.526Z,140.00
2018-01-05T07:42:04.450Z,144.00
2018-01-05T07:43:58.882Z,148.00
2018-01-05T07:44:58.805Z,144.00
2018-01-05T07:46:53.833Z,144.00
2018-01-05T07:47:53.839Z,148.00
2018-01-05T07:49:48.660Z,144.00
2018-01-05T07:50:47.399Z,148.00
2018-01-05T07:52:41.752Z,144.00
2018-01-05T07:53:41.698Z,148.00
2018-01-05T07:54:41.696Z,152.00
2018-01-05T07:55:41.689Z,148.00
2018-01-05T07:56:41.688Z,152.00
2018-01-05T07:57:41.691Z,160.00
2018-01-05T07:58:41.676Z,168.00
2018-01-05T07:59:41.673Z,160.00
2018-01-05T08:00:41.724Z,148.00
2018-01-05T08:01:41.948Z,144.00
2018-01-05T08:02:41.858Z,152.00
2018-01-05T08:03:41.884Z,164.00
2018-01-05T08:04:41.648Z,164.00
2018-01-05T08:05:41.646Z,156.00
2018-01-05T08:06:41.639Z,132.00
2018-01-05T08:07:41.635Z,108.00
2018-01-05T08:08:41.631Z,92.00
2018-01-05T08:09:41.956Z,84.00
2018-01-05T08:10:41.622Z,80.00
2018-01-05T08:11:41.634Z,88.00
2018-01-05T08:12:41.613Z,112.00
2018-01-05T08:13:41.609Z,152.00
2018-01-05T08:14:41.606Z,168.00
2018-01-05T08:15:41.600Z,164.00
2018-01-05T08:16:41.623Z,172.00
2018-01-05T08:17:41.590Z,184.00
2018-01-05T08:18:41.587Z,188.00
2018-01-05T08:19:41.582Z,176.00
2018-01-05T08:20:41.581Z,160.00
2018-01-05T08:21:41.573Z,156.00
2018-01-05T08:22:41.567Z,148.00
2018-01-05T08:23:41.567Z,140.00
2018-01-05T08:24:41.558Z,152.00
2018-01-05T08:25:41.898Z,160.00
2018-01-05T08:26:41.552Z,188.00
2018-01-05T08:27:41.548Z,208.00
2018-01-05T08:28:41.542Z,216.00
2018-01-05T08:29:41.538Z,236.00
2018-01-05T08:30:41.532Z,236.00
2018-01-05T08:31:41.530Z,228.00
2018-01-05T08:32:41.525Z,212.00
2018-01-05T08:33:41.522Z,200.00
2018-01-05T08:34:41.517Z,204.00
2018-01-05T08:35:41.529Z,212.00
2018-01-05T08:36:41.825Z,224.00
2018-01-05T08:37:41.501Z,220.00
2018-01-05T08:38:41.500Z,204.00
2018-01-05T08:39:42.277Z,192.00
2018-01-05T08:40:41.490Z,200.00
2018-01-05T08:41:41.486Z,208.00
2018-01-05T08:42:41.480Z,248.00
2018-01-05T08:43:41.476Z,308.00
2018-01-05T08:44:41.481Z,336.00
2018-01-05T08:45:42.371Z,352.00
2018-01-05T08:46:42.356Z,408.00
2018-01-05T08:47:41.479Z,460.00
2018-01-05T08:48:41.456Z,400.00
2018-01-05T08:49:41.495Z,416.00
2018-01-05T08:50:41.448Z,404.00
2018-01-05T08:51:41.451Z,368.00
2018-01-05T08:52:41.446Z,304.00
2018-01-05T08:53:41.440Z,272.00
2018-01-05T08:54:41.432Z,244.00
2018-01-05T08:55:41.446Z,260.00
2018-01-05T08:56:41.425Z,288.00
2018-01-05T08:57:41.422Z,308.00
2018-01-05T08:58:41.420Z,372.00
2018-01-05T08:59:41.752Z,408.00
2018-01-05T09:00:41.409Z,388.00
2018-01-05T09:01:41.405Z,356.00
2018-01-05T09:02:41.402Z,344.00
2018-01-05T09:03:41.401Z,344.00
2018-01-05T09:04:41.397Z,344.00
2018-01-05T09:05:41.391Z,388.00
2018-01-05T09:06:41.389Z,364.00
2018-01-05T09:07:41.384Z,360.00
2018-01-05T09:08:41.381Z,380.00
2018-01-05T09:09:41.377Z,380.00
2018-01-05T09:10:41.375Z,364.00
2018-01-05T09:11:41.371Z,372.00
2018-01-05T09:12:41.365Z,376.00
2018-01-05T09:13:41.362Z,404.00
2018-01-05T09:14:41.362Z,440.00
2018-01-05T09:15:41.356Z,544.00
2018-01-05T09:16:41.353Z,512.00
2018-01-05T09:17:41.349Z,432.00
2018-01-05T09:18:41.345Z,428.00
2018-01-05T09:19:41.342Z,448.00
2018-01-05T09:20:41.338Z,436.00
2018-01-05T09:21:41.339Z,416.00
2018-01-05T09:22:41.340Z,376.00
2018-01-05T09:23:41.325Z,408.00
2018-01-05T09:24:41.323Z,400.00
2018-01-05T09:25:41.322Z,436.00
2018-01-05T09:26:41.315Z,456.00
2018-01-05T09:27:41.311Z,444.00
2018-01-05T09:28:41.310Z,396.00
2018-01-05T09:29:41.316Z,376.00
2018-01-05T09:30:41.302Z,364.00
2018-01-05T09:31:41.301Z,380.00
2018-01-05T09:32:41.294Z,384.00
2018-01-05T09:33:41.291Z,416.00
2018-01-05T09:34:41.290Z,484.00
2018-01-05T09:35:41.285Z,500.00
2018-01-05T09:36:41.284Z,536.00
2018-01-05T09:37:41.277Z,572.00
2018-01-05T09:38:41.277Z,624.00
2018-01-05T09:39:41.272Z,608.00
2018-01-05T09:40:41.267Z,700.00
2018-01-05T09:41:41.262Z,816.00
2018-01-05T09:42:41.263Z,780.00
2018-01-05T09:43:41.263Z,792.00
2018-01-05T09:44:41.254Z,692.00
2018-01-05T09:45:41.250Z,660.00
2018-01-05T09:46:41.254Z,632.00
2018-01-05T09:47:41.244Z,612.00
2018-01-05T09:48:41.240Z,684.00
2018-01-05T09:49:41.236Z,656.00
2018-01-05T09:50:41.236Z,660.00
2018-01-05T09:51:41.229Z,672.00
2018-01-05T09:52:41.229Z,732.00
2018-01-05T09:53:41.225Z,756.00
2018-01-05T09:54:41.221Z,832.00
2018-01-05T09:55:41.217Z,872.00
2018-01-05T09:56:41.212Z,880.00
2018-01-05T09:57:41.210Z,620.00
2018-01-05T09:58:41.209Z,428.00
2018-01-05T09:59:41.223Z,380.00
2018-01-05T10:00:41.205Z,424.00
2018-01-05T10:01:41.199Z,404.00
2018-01-05T10:02:41.195Z,308.00
2018-01-05T10:03:41.191Z,352.00
2018-01-05T10:04:41.188Z,468.00
2018-01-05T10:05:41.186Z,460.00
2018-01-05T10:06:41.184Z,352.00
2018-01-05T10:07:41.180Z,304.00
2018-01-05T10:08:41.186Z,284.00
2018-01-05T10:09:41.174Z,308.00
2018-01-05T10:10:41.171Z,412.00
2018-01-05T10:11:41.169Z,512.00
2018-01-05T10:12:41.215Z,536.00
2018-01-05T10:13:41.160Z,516.00
2018-01-05T10:14:41.158Z,464.00
2018-01-05T10:15:41.182Z,452.00
2018-01-05T10:16:41.150Z,460.00
2018-01-05T10:17:41.147Z,500.00
2018-01-05T10:18:41.148Z,544.00
2018-01-05T10:19:41.147Z,584.00
2018-01-05T10:20:41.139Z,636.00
2018-01-05T10:21:41.147Z,776.00
2018-01-05T10:22:41.140Z,964.00
2018-01-05T10:23:41.130Z,940.00
2018-01-05T10:24:41.191Z,932.00
2018-01-05T10:25:41.121Z,792.00
2018-01-05T10:26:41.117Z,776.00
2018-01-05T10:27:41.114Z,832.00
2018-01-05T10:28:41.112Z,952.00
2018-01-05T10:29:41.107Z,1088.00
2018-01-05T10:30:41.104Z,1200.00
2018-01-05T10:31:41.102Z,1100.00
2018-01-05T10:32:41.099Z,1060.00
2018-01-05T10:33:41.096Z,1052.00
2018-01-05T10:34:41.099Z,1096.00
2018-01-05T10:35:41.087Z,1000.00
2018-01-05T10:36:41.084Z,904.00
2018-01-05T10:37:41.082Z,908.00
2018-01-05T10:38:41.080Z,868.00
2018-01-05T10:39:41.080Z,872.00
2018-01-05T10:40:41.071Z,1040.00
2018-01-05T10:41:41.077Z,1004.00
2018-01-05T10:42:41.075Z,952.00
2018-01-05T10:43:41.062Z,988.00
2018-01-05T10:44:41.059Z,1008.00
2018-01-05T10:45:41.057Z,1020.00
2018-01-05T10:46:41.054Z,1048.00
2018-01-05T10:47:41.050Z,948.00
2018-01-05T10:48:41.049Z,768.00
2018-01-05T10:49:41.043Z,668.00
2018-01-05T10:50:41.039Z,580.00
2018-01-05T10:51:41.038Z,500.00
2018-01-05T10:52:41.033Z,620.00
2018-01-05T10:53:41.066Z,792.00
2018-01-05T10:54:41.028Z,804.00
2018-01-05T10:55:41.024Z,788.00
2018-01-05T10:56:41.027Z,776.00
2018-01-05T10:57:41.043Z,820.00
2018-01-05T10:58:41.036Z,832.00
2018-01-05T10:59:41.011Z,864.00
2018-01-05T11:00:41.157Z,872.00
2018-01-05T11:01:41.009Z,864.00
2018-01-05T11:02:41.005Z,864.00
2018-01-05T11:03:40.999Z,852.00
2018-01-05T11:04:41.001Z,800.00
2018-01-05T11:05:40.993Z,768.00
2018-01-05T11:06:41.000Z,704.00
2018-01-05T11:07:40.985Z,712.00
2018-01-05T11:08:40.997Z,736.00
2018-01-05T11:09:40.985Z,752.00
2018-01-05T11:10:40.978Z,760.00
2018-01-05T11:11:40.973Z,764.00
2018-01-05T11:12:40.972Z,780.00
2018-01-05T11:13:40.970Z,780.00
2018-01-05T11:14:40.966Z,748.00
2018-01-05T11:15:40.960Z,744.00
2018-01-05T11:16:40.959Z,764.00
2018-01-05T11:17:40.960Z,720.00
2018-01-05T11:18:40.951Z,572.00
2018-01-05T11:19:40.951Z,492.00
2018-01-05T11:20:40.948Z,428.00
2018-01-05T11:21:40.942Z,392.00
2018-01-05T11:22:40.938Z,400.00
2018-01-05T11:23:40.936Z,400.00
2018-01-05T11:24:40.934Z,392.00
2018-01-05T11:25:40.960Z,376.00
2018-01-05T11:26:40.931Z,416.00
2018-01-05T11:27:40.926Z,424.00
2018-01-05T11:28:40.965Z,404.00
2018-01-05T11:29:40.927Z,412.00
2018-01-05T11:30:40.913Z,400.00
2018-01-05T11:31:40.915Z,368.00
2018-01-05T11:32:40.910Z,348.00
2018-01-05T11:33:40.906Z,336.00
2018-01-05T11:34:40.903Z,312.00
2018-01-05T11:35:40.902Z,292.00
2018-01-05T11:36:40.895Z,292.00
2018-01-05T11:37:40.900Z,288.00
2018-01-05T11:38:40.890Z,300.00
2018-01-05T11:39:40.887Z,320.00
2018-01-05T11:40:40.886Z,340.00
2018-01-05T11:41:40.879Z,416.00
2018-01-05T11:42:40.877Z,488.00
2018-01-05T11:43:40.875Z,504.00
2018-01-05T11:44:40.880Z,448.00
2018-01-05T11:45:40.879Z,416.00
2018-01-05T11:46:40.866Z,420.00
2018-01-05T11:47:40.876Z,428.00
2018-01-05T11:48:40.883Z,400.00
2018-01-05T11:49:40.856Z,408.00
2018-01-05T11:50:40.852Z,404.00
2018-01-05T11:51:40.851Z,384.00
2018-01-05T11:52:40.851Z,392.00
2018-01-05T11:53:40.853Z,408.00
2018-01-05T11:54:40.841Z,436.00
2018-01-05T11:55:40.835Z,476.00
2018-01-05T11:56:40.835Z,496.00
2018-01-05T11:57:40.850Z,512.00
2018-01-05T11:58:40.829Z,532.00
2018-01-05T11:59:40.829Z,584.00
2018-01-05T12:00:40.823Z,648.00
2018-01-05T12:01:40.816Z,696.00
2018-01-05T12:02:41.738Z,756.00
2018-01-05T12:03:40.887Z,768.00
2018-01-05T12:04:42.260Z,716.00
2018-01-05T12:05:40.856Z,668.00
2018-01-05T12:06:41.747Z,652.00
2018-01-05T12:07:42.269Z,660.00
2018-01-05T12:08:41.762Z,700.00
2018-01-05T12:09:41.749Z,760.00
2018-01-05T12:10:40.872Z,824.00
2018-01-05T12:11:40.853Z,856.00
2018-01-05T12:12:42.269Z,880.00
2018-01-05T12:13:42.263Z,912.00
2018-01-05T12:14:42.257Z,952.00
2018-01-05T12:15:42.263Z,944.00
2018-01-05T12:16:41.748Z,876.00
2018-01-05T12:17:41.763Z,812.00
2018-01-05T12:18:42.269Z,760.00
2018-01-05T12:19:41.767Z,752.00
2018-01-05T12:20:40.861Z,788.00
2018-01-05T12:21:40.795Z,740.00
2018-01-05T12:22:41.743Z,700.00
2018-01-05T12:23:40.789Z,716.00
2018-01-05T12:24:41.765Z,708.00
2018-01-05T12:25:42.249Z,740.00
2018-01-05T12:26:41.781Z,780.00
2018-01-05T12:27:40.845Z,804.00
2018-01-05T12:28:40.842Z,772.00
2018-01-05T12:29:40.829Z,700.00
2018-01-05T12:30:41.771Z,636.00
2018-01-05T12:31:40.806Z,600.00
2018-01-05T12:32:40.776Z,564.00
2018-01-05T12:33:40.779Z,600.00
2018-01-05T12:34:41.766Z,644.00
2018-01-05T12:35:40.768Z,696.00
2018-01-05T12:36:40.784Z,692.00
2018-01-05T12:37:40.769Z,616.00
2018-01-05T12:38:40.732Z,532.00
2018-01-05T12:39:40.783Z,532.00
2018-01-05T12:40:41.769Z,556.00
2018-01-05T12:41:40.789Z,560.00
2018-01-05T12:42:41.370Z,580.00
2018-01-05T12:43:40.717Z,588.00
2018-01-05T12:44:41.276Z,548.00
2018-01-05T12:45:40.749Z,488.00
2018-01-05T12:46:40.725Z,436.00
2018-01-05T12:47:40.732Z,440.00
2018-01-05T12:48:41.740Z,464.00
2018-01-05T12:49:40.720Z,492.00
2018-01-05T12:50:41.276Z,520.00
2018-01-05T12:51:42.266Z,480.00
2018-01-05T12:52:40.706Z,480.00
2018-01-05T12:53:42.773Z,512.00
2018-01-05T12:54:42.268Z,524.00
2018-01-05T12:55:42.261Z,528.00
2018-01-05T12:56:41.773Z,528.00
2018-01-05T12:57:44.767Z,492.00
2018-01-05T12:58:41.280Z,420.00
2018-01-05T12:59:41.268Z,368.00
2018-01-05T13:00:40.710Z,340.00
2018-01-05T13:01:40.777Z,324.00
2018-01-05T13:02:42.744Z,320.00
2018-01-05T13:03:41.768Z,296.00
2018-01-05T13:04:41.265Z,260.00
2018-01-05T13:05:42.279Z,244.00
2018-01-05T13:06:41.274Z,240.00
2018-01-05T13:07:41.271Z,220.00
2018-01-05T13:08:40.638Z,204.00
2018-01-05T13:09:41.238Z,204.00
2018-01-05T13:10:41.770Z,240.00
2018-01-05T13:11:41.771Z,268.00
2018-01-05T13:12:42.289Z,280.00
2018-01-05T13:13:40.674Z,284.00
2018-01-05T13:14:41.269Z,272.00
2018-01-05T13:15:40.728Z,260.00
2018-01-05T13:16:40.676Z,256.00
2018-01-05T13:17:41.405Z,244.00
2018-01-05T13:18:41.273Z,240.00
2018-01-05T13:19:40.682Z,236.00
2018-01-05T13:20:41.254Z,236.00
2018-01-05T13:21:41.285Z,248.00
2018-01-05T13:22:40.658Z,264.00
2018-01-05T13:23:40.588Z,272.00
2018-01-05T13:24:40.578Z,284.00
2018-01-05T13:25:40.575Z,320.00
2018-01-05T13:26:40.604Z,344.00
2018-01-05T13:27:40.580Z,324.00
2018-01-05T13:28:40.573Z,280.00
2018-01-05T13:29:40.613Z,248.00
2018-01-05T13:30:40.569Z,228.00
2018-01-05T13:31:40.556Z,216.00
2018-01-05T13:32:40.555Z,200.00
2018-01-05T13:33:40.556Z,200.00
2018-01-05T13:34:40.548Z,220.00
2018-01-05T13:35:40.546Z,272.00
2018-01-05T13:36:40.543Z,324.00
2018-01-05T13:37:40.566Z,360.00
2018-01-05T13:38:40.542Z,360.00
2018-01-05T13:39:40.559Z,376.00
2018-01-05T13:40:40.532Z,396.00
2018-01-05T13:41:40.529Z,412.00
2018-01-05T13:42:40.535Z,420.00
2018-01-05T13:43:40.528Z,424.00
2018-01-05T13:44:40.526Z,424.00
2018-01-05T13:45:40.520Z,424.00
2018-01-05T13:46:40.525Z,432.00
2018-01-05T13:47:40.514Z,444.00
2018-01-05T13:48:40.508Z,440.00
2018-01-05T13:49:40.515Z,432.00
2018-01-05T13:50:40.510Z,436.00
2018-01-05T13:51:40.505Z,420.00
2018-01-05T13:52:40.499Z,404.00
2018-01-05T13:53:40.496Z,380.00
2018-01-05T13:54:40.492Z,360.00
2018-01-05T13:55:40.492Z,356.00
2018-01-05T13:56:40.486Z,340.00
2018-01-05T13:57:40.483Z,324.00
2018-01-05T13:58:40.480Z,324.00
2018-01-05T13:59:40.479Z,340.00
2018-01-05T14:00:40.523Z,348.00
2018-01-05T14:01:40.488Z,320.00
2018-01-05T14:02:40.481Z,284.00
2018-01-05T14:03:40.466Z,264.00
2018-01-05T14:04:40.472Z,236.00
2018-01-05T14:05:40.465Z,204.00
2018-01-05T14:06:40.502Z,188.00
2018-01-05T14:07:40.454Z,176.00
2018-01-05T14:08:40.456Z,164.00
2018-01-05T14:09:40.452Z,172.00
2018-01-05T14:10:40.467Z,184.00
2018-01-05T14:11:40.444Z,192.00
2018-01-05T14:12:40.441Z,200.00
2018-01-05T14:13:40.460Z,204.00
2018-01-05T14:14:40.435Z,196.00
2018-01-05T14:15:40.433Z,192.00
2018-01-05T14:16:40.432Z,200.00
2018-01-05T14:17:40.428Z,200.00
2018-01-05T14:18:40.435Z,200.00
2018-01-05T14:19:40.425Z,204.00
2018-01-05T14:20:40.424Z,196.00
2018-01-05T14:21:40.418Z,192.00
2018-01-05T14:22:40.417Z,188.00
2018-01-05T14:23:40.413Z,184.00
2018-01-05T14:24:40.416Z,180.00
2018-01-05T14:25:40.451Z,164.00
2018-01-05T14:26:40.407Z,148.00
2018-01-05T14:27:40.411Z,140.00
2018-01-05T14:28:40.403Z,132.00
2018-01-05T14:29:40.397Z,128.00
2018-01-05T14:30:40.399Z,120.00
2018-01-05T14:31:40.398Z,116.00
2018-01-05T14:32:40.397Z,120.00
2018-01-05T14:33:40.387Z,116.00
2018-01-05T14:34:40.394Z,100.00
2018-01-05T14:35:40.382Z,92.00
2018-01-05T14:36:40.381Z,96.00
2018-01-05T14:37:40.378Z,100.00
2018-01-05T14:38:40.376Z,100.00
2018-01-05T14:39:40.376Z,100.00
2018-01-05T14:40:40.370Z,96.00
2018-01-05T14:41:40.368Z,92.00
2018-01-05T14:42:40.376Z,84.00
2018-01-05T14:43:40.365Z,80.00
2018-01-05T14:44:40.361Z,76.00
2018-01-05T14:45:40.362Z,72.00
2018-01-05T14:46:40.359Z,72.00
2018-01-05T14:47:40.358Z,72.00
2018-01-05T14:48:40.350Z,68.00
2018-01-05T14:49:40.347Z,64.00
2018-01-05T14:50:40.377Z,60.00
2018-01-05T14:51:40.344Z,56.00
2018-01-05T14:52:40.340Z,52.00
2018-01-05T14:53:40.337Z,48.00
2018-01-05T14:54:40.344Z,44.00
2018-01-05T14:55:40.336Z,40.00
2018-01-05T14:56:40.336Z,40.00
2018-01-05T14:57:40.328Z,40.00
2018-01-05T14:58:40.329Z,36.00
2018-01-05T14:59:40.322Z,40.00
2018-01-05T15:00:40.325Z,36.00
2018-01-05T15:01:40.319Z,36.00
2018-01-05T15:02:40.314Z,28.00
2018-01-05T15:03:40.313Z,28.00
2018-01-05T15:04:40.311Z,28.00
2018-01-05T15:05:40.330Z,28.00
2018-01-05T15:06:40.302Z,28.00
2018-01-05T15:07:40.300Z,24.00
2018-01-05T15:08:40.297Z,24.00